sensor_id;sensor_type;location;lat;lon;timestamp;P1;durP1;ratioP1;P2;durP2;ratioP2
10440;SDS011;5268;49.346;9.522;2023-12-20T04:06:28;1.55;;;1.20;;
10440;SDS011;5268;49.346;9.522;2023-12-20T04:11:44;1.00;;;0.90;;
10440;SDS011;5268;49.346;9.522;2023-12-20T04:16:49;1.92;;;1.30;;
10440;SDS011;5268;49.346;9.522;2023-12-20T04:21:55;1.80;;;1.20;;
10440;SDS011;5268;49.346;9.522;2023-12-20T04:27:20;2.10;;;1.33;;
10440;SDS011;5268;49.346;9.522;2023-12-20T04:32:34;2.35;;;2.15;;
10440;SDS011;5268;49.346;9.522;2023-12-20T04:38:00;1.60;;;1.50;;
10440;SDS011;5268;49.346;9.522;2023-12-20T04:43:03;1.98;;;1.70;;
10440;SDS011;5268;49.346;9.522;2023-12-20T04:48:12;1.60;;;1.50;;
10440;SDS011;5268;49.346;9.522;2023-12-20T04:53:20;2.50;;;2.10;;
10440;SDS011;5268;49.346;9.522;2023-12-20T04:58:27;2.20;;;2.00;;
10440;SDS011;5268;49.346;9.522;2023-12-20T05:03:29;2.20;;;1.98;;
10440;SDS011;5268;49.346;9.522;2023-12-20T05:08:43;2.17;;;1.95;;
10440;SDS011;5268;49.346;9.522;2023-12-20T05:14:05;2.20;;;2.00;;
10440;SDS011;5268;49.346;9.522;2023-12-20T05:19:11;2.33;;;2.10;;
10440;SDS011;5268;49.346;9.522;2023-12-20T05:24:17;2.53;;;2.03;;
10440;SDS011;5268;49.346;9.522;2023-12-20T05:29:22;2.30;;;2.10;;
10440;SDS011;5268;49.346;9.522;2023-12-20T05:34:24;2.28;;;2.08;;
10440;SDS011;5268;49.346;9.522;2023-12-20T05:39:29;2.15;;;1.95;;
10440;SDS011;5268;49.346;9.522;2023-12-20T05:44:35;1.92;;;1.73;;
10440;SDS011;5268;49.346;9.522;2023-12-20T05:49:37;2.00;;;1.80;;
10440;SDS011;5268;49.346;9.522;2023-12-20T05:54:40;2.38;;;2.15;;
10440;SDS011;5268;49.346;9.522;2023-12-20T05:59:42;1.95;;;1.77;;
10440;SDS011;5268;49.346;9.522;2023-12-20T06:04:46;1.75;;;1.65;;
10440;SDS011;5268;49.346;9.522;2023-12-20T06:15:46;2.33;;;2.13;;
10440;SDS011;5268;49.346;9.522;2023-12-20T06:26:52;2.38;;;2.17;;
10440;SDS011;5268;49.346;9.522;2023-12-20T06:44:21;2.33;;;2.13;;
10440;SDS011;5268;49.346;9.522;2023-12-20T06:49:40;2.70;;;2.50;;
10440;SDS011;5268;49.346;9.522;2023-12-20T07:00:30;2.90;;;2.65;;
10440;SDS011;5268;49.346;9.522;2023-12-20T07:11:20;2.60;;;2.40;;
10440;SDS011;5268;49.346;9.522;2023-12-20T07:16:42;3.08;;;2.78;;
10440;SDS011;5268;49.346;9.522;2023-12-20T07:22:18;2.55;;;2.30;;
10440;SDS011;5268;49.346;9.522;2023-12-20T07:27:22;2.20;;;2.00;;
10440;SDS011;5268;49.346;9.522;2023-12-20T07:39:00;2.05;;;1.85;;
10440;SDS011;5268;49.346;9.522;2023-12-20T07:44:08;2.33;;;1.95;;
10440;SDS011;5268;49.346;9.522;2023-12-20T08:01:15;2.88;;;2.30;;
10440;SDS011;5268;49.346;9.522;2023-12-20T08:06:19;5.28;;;2.55;;
10440;SDS011;5268;49.346;9.522;2023-12-20T09:04:48;4.03;;;3.00;;
10440;SDS011;5268;49.346;9.522;2023-12-20T09:46:05;5.10;;;3.80;;
10440;SDS011;5268;49.346;9.522;2023-12-20T09:51:11;5.97;;;5.03;;
10440;SDS011;5268;49.346;9.522;2023-12-20T09:56:14;9.13;;;5.88;;
10440;SDS011;5268;49.346;9.522;2023-12-20T10:01:18;9.13;;;6.10;;
10440;SDS011;5268;49.346;9.522;2023-12-20T10:06:20;9.00;;;6.65;;
10440;SDS011;5268;49.346;9.522;2023-12-20T10:11:23;6.63;;;5.38;;
10440;SDS011;5268;49.346;9.522;2023-12-20T10:16:27;5.97;;;3.95;;
10440;SDS011;5268;49.346;9.522;2023-12-20T10:21:33;8.70;;;4.47;;
10440;SDS011;5268;49.346;9.522;2023-12-20T10:26:36;4.95;;;3.00;;
10440;SDS011;5268;49.346;9.522;2023-12-20T10:31:40;9.30;;;4.78;;
10440;SDS011;5268;49.346;9.522;2023-12-20T10:36:42;6.60;;;3.67;;
10440;SDS011;5268;49.346;9.522;2023-12-20T10:41:47;5.47;;;2.60;;
10440;SDS011;5268;49.346;9.522;2023-12-20T10:46:57;3.85;;;2.35;;
10440;SDS011;5268;49.346;9.522;2023-12-20T10:52:00;4.50;;;2.42;;
10440;SDS011;5268;49.346;9.522;2023-12-20T10:57:22;5.13;;;1.98;;
10440;SDS011;5268;49.346;9.522;2023-12-20T11:02:39;4.05;;;1.88;;
10440;SDS011;5268;49.346;9.522;2023-12-20T11:08:30;3.38;;;1.52;;
10440;SDS011;5268;49.346;9.522;2023-12-20T11:13:59;4.25;;;2.20;;
10440;SDS011;5268;49.346;9.522;2023-12-20T11:37:12;4.45;;;2.08;;
10440;SDS011;5268;49.346;9.522;2023-12-20T11:44:08;3.78;;;1.73;;
10440;SDS011;5268;49.346;9.522;2023-12-20T11:49:53;4.47;;;1.92;;
10440;SDS011;5268;49.346;9.522;2023-12-20T11:55:16;4.00;;;1.50;;
10440;SDS011;5268;49.346;9.522;2023-12-20T12:00:45;5.07;;;2.05;;
10440;SDS011;5268;49.346;9.522;2023-12-20T12:06:38;4.70;;;1.85;;
10440;SDS011;5268;49.346;9.522;2023-12-20T12:41:05;5.03;;;1.85;;
10440;SDS011;5268;49.346;9.522;2023-12-20T12:46:23;5.95;;;1.95;;
10440;SDS011;5268;49.346;9.522;2023-12-20T12:52:11;4.65;;;1.80;;
10440;SDS011;5268;49.346;9.522;2023-12-20T13:02:38;5.93;;;2.15;;
10440;SDS011;5268;49.346;9.522;2023-12-20T13:07:44;5.05;;;2.10;;
10440;SDS011;5268;49.346;9.522;2023-12-20T13:13:13;5.22;;;2.33;;
10440;SDS011;5268;49.346;9.522;2023-12-20T13:18:28;6.80;;;2.55;;
10440;SDS011;5268;49.346;9.522;2023-12-20T13:24:00;5.30;;;2.20;;
10440;SDS011;5268;49.346;9.522;2023-12-20T13:29:23;6.68;;;3.10;;
10440;SDS011;5268;49.346;9.522;2023-12-20T13:34:34;5.95;;;2.55;;
10440;SDS011;5268;49.346;9.522;2023-12-20T13:39:53;6.93;;;2.53;;
10440;SDS011;5268;49.346;9.522;2023-12-20T13:45:00;4.32;;;2.30;;
10440;SDS011;5268;49.346;9.522;2023-12-20T13:50:13;4.75;;;2.10;;
10440;SDS011;5268;49.346;9.522;2023-12-20T13:55:29;5.13;;;2.42;;
10440;SDS011;5268;49.346;9.522;2023-12-20T14:00:32;7.35;;;2.63;;
10440;SDS011;5268;49.346;9.522;2023-12-20T14:05:39;8.70;;;2.75;;
10440;SDS011;5268;49.346;9.522;2023-12-20T14:10:43;6.55;;;2.80;;
10440;SDS011;5268;49.346;9.522;2023-12-20T14:15:45;7.20;;;2.25;;
10440;SDS011;5268;49.346;9.522;2023-12-20T14:26:14;6.30;;;2.45;;
10440;SDS011;5268;49.346;9.522;2023-12-20T14:31:23;5.65;;;2.50;;
10440;SDS011;5268;49.346;9.522;2023-12-20T14:36:42;8.15;;;4.03;;
10440;SDS011;5268;49.346;9.522;2023-12-20T14:41:48;5.75;;;2.60;;
10440;SDS011;5268;49.346;9.522;2023-12-20T14:46:59;5.68;;;3.13;;
10440;SDS011;5268;49.346;9.522;2023-12-20T14:52:08;6.00;;;2.53;;
10440;SDS011;5268;49.346;9.522;2023-12-20T14:57:24;7.38;;;2.70;;
10440;SDS011;5268;49.346;9.522;2023-12-20T15:02:39;6.35;;;3.08;;
10440;SDS011;5268;49.346;9.522;2023-12-20T15:13:54;9.82;;;3.80;;
10440;SDS011;5268;49.346;9.522;2023-12-20T15:19:01;8.32;;;4.57;;
10440;SDS011;5268;49.346;9.522;2023-12-20T15:24:08;7.15;;;4.18;;
10440;SDS011;5268;49.346;9.522;2023-12-20T15:29:22;5.85;;;3.90;;
10440;SDS011;5268;49.346;9.522;2023-12-20T15:34:26;5.63;;;2.42;;
10440;SDS011;5268;49.346;9.522;2023-12-20T15:39:44;9.07;;;2.92;;
10440;SDS011;5268;49.346;9.522;2023-12-20T15:45:00;6.10;;;2.85;;
10440;SDS011;5268;49.346;9.522;2023-12-20T15:50:36;9.02;;;3.78;;
10440;SDS011;5268;49.346;9.522;2023-12-20T15:55:50;8.70;;;3.60;;
10440;SDS011;5268;49.346;9.522;2023-12-20T16:01:15;4.88;;;2.50;;
10440;SDS011;5268;49.346;9.522;2023-12-20T16:06:17;8.43;;;2.78;;
10440;SDS011;5268;49.346;9.522;2023-12-20T16:11:21;4.10;;;2.40;;
10440;SDS011;5268;49.346;9.522;2023-12-20T16:16:26;6.65;;;2.38;;
10440;SDS011;5268;49.346;9.522;2023-12-20T16:21:33;5.32;;;2.40;;
10440;SDS011;5268;49.346;9.522;2023-12-20T16:27:03;5.32;;;2.67;;
10440;SDS011;5268;49.346;9.522;2023-12-20T16:32:10;7.05;;;2.13;;
10440;SDS011;5268;49.346;9.522;2023-12-20T16:37:18;5.82;;;2.30;;
10440;SDS011;5268;49.346;9.522;2023-12-20T16:47:58;6.53;;;2.65;;
10440;SDS011;5268;49.346;9.522;2023-12-20T16:53:18;7.57;;;2.50;;
10440;SDS011;5268;49.346;9.522;2023-12-20T16:58:30;6.97;;;2.28;;
10440;SDS011;5268;49.346;9.522;2023-12-20T17:03:32;9.18;;;2.28;;
10440;SDS011;5268;49.346;9.522;2023-12-20T17:08:36;6.07;;;2.42;;
10440;SDS011;5268;49.346;9.522;2023-12-20T17:13:47;5.03;;;2.25;;
10440;SDS011;5268;49.346;9.522;2023-12-20T17:18:49;7.75;;;2.17;;
10440;SDS011;5268;49.346;9.522;2023-12-20T17:23:54;11.68;;;8.52;;
10440;SDS011;5268;49.346;9.522;2023-12-20T17:29:08;10.13;;;2.40;;
10440;SDS011;5268;49.346;9.522;2023-12-20T17:34:12;7.32;;;2.58;;
10440;SDS011;5268;49.346;9.522;2023-12-20T17:39:19;4.72;;;2.08;;
10440;SDS011;5268;49.346;9.522;2023-12-20T17:44:35;6.68;;;2.95;;
10440;SDS011;5268;49.346;9.522;2023-12-20T17:49:39;8.35;;;2.40;;
10440;SDS011;5268;49.346;9.522;2023-12-20T17:54:41;5.30;;;2.33;;
10440;SDS011;5268;49.346;9.522;2023-12-20T17:59:44;4.60;;;2.08;;
10440;SDS011;5268;49.346;9.522;2023-12-20T18:04:46;7.97;;;2.30;;
10440;SDS011;5268;49.346;9.522;2023-12-20T18:09:48;7.78;;;2.45;;
10440;SDS011;5268;49.346;9.522;2023-12-20T18:14:52;7.20;;;2.47;;
10440;SDS011;5268;49.346;9.522;2023-12-20T18:19:55;7.22;;;2.42;;
10440;SDS011;5268;49.346;9.522;2023-12-20T18:24:59;7.15;;;2.30;;
10440;SDS011;5268;49.346;9.522;2023-12-20T18:30:04;6.00;;;2.20;;
10440;SDS011;5268;49.346;9.522;2023-12-20T18:35:07;7.43;;;2.08;;
10440;SDS011;5268;49.346;9.522;2023-12-20T18:40:11;4.35;;;2.00;;
10440;SDS011;5268;49.346;9.522;2023-12-20T18:45:16;7.00;;;1.90;;
10440;SDS011;5268;49.346;9.522;2023-12-20T18:50:18;5.13;;;1.83;;
10440;SDS011;5268;49.346;9.522;2023-12-20T18:55:21;5.18;;;2.15;;
10440;SDS011;5268;49.346;9.522;2023-12-20T19:00:24;4.88;;;1.92;;
10440;SDS011;5268;49.346;9.522;2023-12-20T19:05:27;7.07;;;2.72;;
10440;SDS011;5268;49.346;9.522;2023-12-20T19:10:29;4.63;;;1.90;;
10440;SDS011;5268;49.346;9.522;2023-12-20T19:15:32;7.60;;;1.83;;
10440;SDS011;5268;49.346;9.522;2023-12-20T19:20:34;4.82;;;2.40;;
10440;SDS011;5268;49.346;9.522;2023-12-20T19:25:36;6.93;;;2.00;;
10440;SDS011;5268;49.346;9.522;2023-12-20T19:30:39;7.65;;;1.77;;
10440;SDS011;5268;49.346;9.522;2023-12-20T19:35:41;4.30;;;1.80;;
10440;SDS011;5268;49.346;9.522;2023-12-20T19:40:43;3.85;;;1.40;;
10440;SDS011;5268;49.346;9.522;2023-12-20T19:45:49;6.53;;;1.90;;
10440;SDS011;5268;49.346;9.522;2023-12-20T19:50:51;4.63;;;1.70;;
10440;SDS011;5268;49.346;9.522;2023-12-20T19:55:53;3.78;;;1.58;;
10440;SDS011;5268;49.346;9.522;2023-12-20T20:00:56;6.20;;;1.85;;
10440;SDS011;5268;49.346;9.522;2023-12-20T20:05:58;3.58;;;1.90;;
10440;SDS011;5268;49.346;9.522;2023-12-20T20:11:00;6.20;;;1.70;;
10440;SDS011;5268;49.346;9.522;2023-12-20T20:16:04;5.78;;;2.00;;
10440;SDS011;5268;49.346;9.522;2023-12-20T20:21:06;2.92;;;1.40;;
10440;SDS011;5268;49.346;9.522;2023-12-20T20:26:08;4.63;;;1.90;;
10440;SDS011;5268;49.346;9.522;2023-12-20T20:31:12;4.75;;;1.60;;
10440;SDS011;5268;49.346;9.522;2023-12-20T20:36:15;5.72;;;2.00;;
10440;SDS011;5268;49.346;9.522;2023-12-20T20:41:17;6.03;;;2.15;;
10440;SDS011;5268;49.346;9.522;2023-12-20T20:46:20;4.05;;;1.70;;
10440;SDS011;5268;49.346;9.522;2023-12-20T20:51:26;2.80;;;1.70;;
10440;SDS011;5268;49.346;9.522;2023-12-20T20:56:29;3.85;;;1.52;;
10440;SDS011;5268;49.346;9.522;2023-12-20T21:01:36;3.50;;;1.48;;
10440;SDS011;5268;49.346;9.522;2023-12-20T21:06:38;5.07;;;1.60;;
10440;SDS011;5268;49.346;9.522;2023-12-20T21:11:40;5.95;;;1.48;;
10440;SDS011;5268;49.346;9.522;2023-12-20T21:16:43;5.10;;;1.80;;
10440;SDS011;5268;49.346;9.522;2023-12-20T21:21:45;2.63;;;1.40;;
10440;SDS011;5268;49.346;9.522;2023-12-20T21:26:47;2.72;;;1.35;;
10440;SDS011;5268;49.346;9.522;2023-12-20T21:31:50;3.25;;;1.40;;
10440;SDS011;5268;49.346;9.522;2023-12-20T21:36:52;2.95;;;1.30;;
10440;SDS011;5268;49.346;9.522;2023-12-20T21:41:54;3.15;;;1.60;;
10440;SDS011;5268;49.346;9.522;2023-12-20T21:46:58;2.95;;;1.33;;
10440;SDS011;5268;49.346;9.522;2023-12-20T21:52:00;5.68;;;1.42;;
10440;SDS011;5268;49.346;9.522;2023-12-20T21:57:02;4.35;;;1.42;;
10440;SDS011;5268;49.346;9.522;2023-12-20T22:02:06;2.35;;;1.20;;
10440;SDS011;5268;49.346;9.522;2023-12-20T22:07:08;2.83;;;1.17;;
10440;SDS011;5268;49.346;9.522;2023-12-20T22:12:10;1.67;;;0.95;;
10440;SDS011;5268;49.346;9.522;2023-12-20T22:17:15;2.30;;;1.08;;
10440;SDS011;5268;49.346;9.522;2023-12-20T22:22:17;2.33;;;1.10;;
10440;SDS011;5268;49.346;9.522;2023-12-20T22:27:20;3.83;;;1.20;;
10440;SDS011;5268;49.346;9.522;2023-12-20T22:32:24;3.42;;;1.00;;
10440;SDS011;5268;49.346;9.522;2023-12-20T22:37:28;2.25;;;1.10;;
10440;SDS011;5268;49.346;9.522;2023-12-20T22:42:29;2.70;;;1.05;;
10440;SDS011;5268;49.346;9.522;2023-12-20T22:47:33;2.75;;;1.20;;
10440;SDS011;5268;49.346;9.522;2023-12-20T22:52:38;1.63;;;1.00;;
